Medicine Park, Oklahoma
Current Conditions -  °F | °C
As of 5:58 PM on Monday 22 Dec 2014 (Local Time) from KFSI Reporting Station
Broken Clouds Broken Clouds  
Wind Chill: 55°   Ceiling: 11000
Heat Index: 55°   Visibility: 10mi
Dew Point: 33°   Wind: 12mph
Humidity: 42%   Direction: 360°N
Pressure: 29.62"   Gusts: NA
Location:  34.73°N, 98.5°W
Report Text: KFSI 222358Z AUTO 36010KT 340V070 10SM FEW090 BKN110 13/00 A2962 RMK AO2 SLP030 T01300004 10154 20130 52006
Loading
Personal Weather Stations






























Interactive Weather Map New forecast layout! Learn more

10-Day Weather Forecast

Advertisements
Track Severe Weather on mobile